Time;durP1;ratioP1;P1;durP2;ratioP2;P2;SDS_P1;SDS_P2;PMS_P1;PMS_P2;Temp;Humidity;BMP_temperature;BMP_pressure;BME280_temperature;BME280_humidity;BME280_pressure;Samples;Min_cycle;Max_cycle;Signal;HPM_P1;HPM_P2
2023/03/20 10:11:34;;;;;;;12.13;11.63;;;16.20;99.90;;;;;;6204748;22;1886451;-74
2023/03/20 10:14:11;;;;;;;11.27;10.77;;;16.50;99.90;;;;;;6252182;23;20388;-74
2023/03/20 10:16:53;;;;;;;10.77;10.37;;;16.40;99.90;;;;;;6252338;23;20387;-76
2023/03/20 10:19:25;;;;;;;11.23;10.83;;;16.70;99.80;;;;;;6252422;23;20422;-76
2023/03/20 10:21:57;;;;;;;10.93;10.53;;;16.80;98.90;;;;;;6252589;23;20798;-75
2023/03/20 10:24:29;;;;;;;13.60;13.00;;;16.80;99.30;;;;;;6252502;23;20403;-76
2023/03/20 10:27:05;;;;;;;12.20;11.60;;;16.90;99.90;;;;;;6252644;23;20392;-74
2023/03/20 10:29:44;;;;;;;11.83;11.23;;;17.10;99.10;;;;;;6252495;23;20468;-74
2023/03/20 10:32:16;;;;;;;10.63;10.23;;;17.00;98.70;;;;;;6252284;23;20419;-75
2023/03/20 10:34:56;;;;;;;11.30;10.90;;;16.70;98.60;;;;;;6252644;23;20391;-75
2023/03/20 10:37:37;;;;;;;11.60;11.10;;;16.90;98.40;;;;;;6252242;23;20407;-75
2023/03/20 10:40:26;;;;;;;11.30;10.90;;;16.60;98.40;;;;;;6252489;23;20413;-74
2023/03/20 10:42:57;;;;;;;11.10;10.50;;;16.50;99.80;;;;;;6252569;23;20391;-74
2023/03/20 10:45:40;;;;;;;10.73;10.30;;;16.20;99.20;;;;;;6252386;23;20406;-74
2023/03/20 10:48:15;;;;;;;12.90;12.37;;;15.90;99.90;;;;;;6252389;23;20717;-75
2023/03/20 10:50:46;;;;;;;11.40;11.00;;;15.90;99.90;;;;;;6252297;23;20434;-74
2023/03/20 10:53:34;;;;;;;9.33;8.97;;;15.90;99.90;;;;;;6252291;23;20414;-74
2023/03/20 10:56:05;;;;;;;11.70;11.23;;;15.90;99.90;;;;;;6247293;23;20451;-74
2023/03/20 10:58:37;;;;;;;11.43;10.93;;;15.80;99.90;;;;;;6251865;23;20438;-74
2023/03/20 11:01:04;;;;;;;11.70;11.10;;;15.50;99.90;;;;;;6251748;23;20402;-74
2023/03/20 11:03:33;;;;;;;11.40;10.90;;;15.10;99.90;;;;;;6252137;23;20465;-74
2023/03/20 11:06:04;;;;;;;11.87;11.37;;;15.00;99.90;;;;;;6251892;23;20791;-73
2023/03/20 11:08:36;;;;;;;13.13;12.27;;;14.80;99.90;;;;;;6237643;23;20546;-75
2023/03/20 11:11:04;;;;;;;14.80;14.00;;;14.70;99.90;;;;;;6217620;23;20494;-75
2023/03/20 11:13:34;;;;;;;13.67;13.07;;;14.60;99.90;;;;;;6214905;23;20408;-73
2023/03/20 11:16:11;;;;;;;12.90;12.30;;;14.40;99.90;;;;;;6215014;23;20397;-73
2023/03/20 11:18:41;;;;;;;12.70;12.10;;;14.10;99.90;;;;;;6214841;23;20393;-74
2023/03/20 11:21:14;;;;;;;12.97;12.13;;;14.00;99.90;;;;;;6215064;23;20409;-74
2023/03/20 11:23:42;;;;;;;11.80;11.13;;;14.00;99.90;;;;;;6214927;23;20389;-74
2023/03/20 11:26:15;;;;;;;13.60;13.00;;;13.90;99.90;;;;;;6214977;23;20444;-73
2023/03/20 11:28:48;;;;;;;12.90;11.80;;;14.00;99.90;;;;;;6215087;23;20770;-73
2023/03/20 11:31:21;;;;;;;13.27;12.63;;;14.10;99.90;;;;;;6215006;23;20740;-74
2023/03/20 11:33:53;;;;;;;15.80;14.90;;;14.20;99.90;;;;;;6215098;23;20717;-73
2023/03/20 11:36:25;;;;;;;15.00;14.10;;;14.30;99.90;;;;;;6215209;23;20401;-74
2023/03/20 11:38:53;;;;;;;13.73;12.93;;;14.60;99.90;;;;;;6214687;23;20416;-73
2023/03/20 11:41:24;;;;;;;14.67;13.87;;;14.90;99.90;;;;;;6214619;23;20412;-74
2023/03/20 11:43:52;;;;;;;13.77;13.00;;;15.10;99.90;;;;;;6214728;23;20722;-74
2023/03/20 11:46:21;;;;;;;14.80;13.80;;;15.30;99.90;;;;;;6214985;23;20419;-75
2023/03/20 11:49:02;;;;;;;14.30;13.50;;;15.50;99.90;;;;;;6214726;23;20415;-74
2023/03/20 11:51:29;;;;;;;14.20;13.20;;;15.60;99.90;;;;;;6214430;23;20848;-74
2023/03/20 11:54:01;;;;;;;13.77;13.07;;;15.90;99.90;;;;;;6214618;23;20405;-74
2023/03/20 11:56:29;;;;;;;14.13;13.53;;;15.80;99.90;;;;;;6214615;23;20417;-74
2023/03/20 11:58:59;;;;;;;13.80;12.93;;;15.80;99.90;;;;;;6214691;23;20417;-75
2023/03/20 12:01:28;;;;;;;15.53;14.33;;;15.70;99.90;;;;;;6214480;23;20411;-74
2023/03/20 12:04:02;;;;;;;16.23;14.80;;;15.80;99.90;;;;;;6214435;23;20413;-75
2023/03/20 12:06:40;;;;;;;15.70;14.23;;;15.60;99.90;;;;;;6214470;23;20884;-74
2023/03/20 12:09:16;;;;;;;16.10;14.60;;;15.50;99.90;;;;;;6213970;23;20924;-74
2023/03/20 12:11:48;;;;;;;19.17;17.30;;;15.90;99.90;;;;;;6214322;23;20415;-74
2023/03/20 12:14:23;;;;;;;14.70;13.80;;;16.30;99.90;;;;;;6214436;23;20584;-74
2023/03/20 12:16:55;;;;;;;14.90;14.00;;;16.40;99.90;;;;;;6214953;23;20704;-74
2023/03/20 12:19:29;;;;;;;17.33;16.10;;;16.80;99.90;;;;;;6215243;23;20385;-75
2023/03/20 12:22:03;;;;;;;15.43;14.57;;;17.20;99.90;;;;;;6214799;23;20385;-75
2023/03/20 12:24:36;;;;;;;14.83;13.93;;;18.00;99.40;;;;;;6214090;23;20420;-75
2023/03/20 12:27:15;;;;;;;14.97;14.17;;;18.20;98.20;;;;;;6214182;23;20908;-75
2023/03/20 12:29:48;;;;;;;16.10;15.17;;;19.10;97.10;;;;;;6214320;23;20424;-75
2023/03/20 12:32:21;;;;;;;15.27;14.30;;;20.00;95.00;;;;;;6214351;23;20396;-74
2023/03/20 12:34:52;;;;;;;15.57;14.77;;;20.10;94.40;;;;;;6214379;23;20389;-75
2023/03/20 12:37:20;;;;;;;14.83;13.70;;;19.50;94.20;;;;;;6213993;23;20397;-75
2023/03/20 12:39:52;;;;;;;15.50;14.20;;;19.50;93.30;;;;;;6214385;23;20483;-75
2023/03/20 12:42:31;;;;;;;16.53;15.53;;;19.20;93.70;;;;;;6213943;23;20415;-74
2023/03/20 12:45:05;;;;;;;14.70;13.93;;;18.60;94.70;;;;;;6214303;23;20399;-75
2023/03/20 12:48:02;;;;;;;14.80;14.00;;;18.60;95.10;;;;;;6214357;23;20396;-75
2023/03/20 12:50:32;;;;;;;14.90;14.20;;;19.00;94.20;;;;;;6214272;23;20436;-75
2023/03/20 12:53:31;;;;;;;15.40;14.70;;;19.30;94.10;;;;;;6214167;23;20455;-76
2023/03/20 12:56:08;;;;;;;15.47;14.67;;;19.30;93.40;;;;;;6210005;23;20772;-74
2023/03/20 12:58:43;;;;;;;15.80;15.00;;;19.60;92.10;;;;;;6213775;23;20492;-75
2023/03/20 13:01:17;;;;;;;16.00;15.00;;;19.30;92.30;;;;;;6214151;23;20438;-74
2023/03/20 13:03:54;;;;;;;14.27;13.50;;;19.20;93.10;;;;;;6213971;23;20393;-75
2023/03/20 13:06:28;;;;;;;16.50;15.70;;;19.30;93.00;;;;;;6214194;23;20389;-74
2023/03/20 13:09:19;;;;;;;16.20;15.40;;;20.00;92.90;;;;;;6213515;23;20424;-75
2023/03/20 13:11:51;;;;;;;14.93;14.00;;;20.80;90.40;;;;;;6209088;23;20439;-74
2023/03/20 13:14:25;;;;;;;14.70;13.90;;;20.40;90.50;;;;;;6214026;23;20443;-75
2023/03/20 13:17:01;;;;;;;15.30;14.60;;;20.00;90.30;;;;;;6213958;23;20451;-75
2023/03/20 13:19:34;;;;;;;15.23;14.40;;;19.70;91.00;;;;;;6213853;23;20511;-75
2023/03/20 13:22:06;;;;;;;15.97;15.07;;;19.80;90.80;;;;;;6213833;23;20400;-75
2023/03/20 13:24:40;;;;;;;15.70;14.60;;;20.10;90.60;;;;;;6214169;23;20716;-74
2023/03/20 13:27:18;;;;;;;15.23;14.43;;;19.80;90.70;;;;;;6213699;23;20423;-74
2023/03/20 13:29:50;;;;;;;14.03;13.27;;;19.70;91.20;;;;;;6213507;23;20519;-75
2023/03/20 13:32:30;;;;;;;14.17;13.47;;;19.30;91.00;;;;;;6213779;23;20393;-75
2023/03/20 13:35:13;;;;;;;14.27;13.57;;;19.10;91.00;;;;;;6213659;23;20691;-74
2023/03/20 13:37:44;;;;;;;15.77;14.67;;;19.40;91.00;;;;;;6213776;23;20451;-76
2023/03/20 13:40:20;;;;;;;16.00;14.80;;;19.70;90.40;;;;;;6213655;23;20405;-76
2023/03/20 13:42:52;;;;;;;15.70;14.90;;;19.80;90.10;;;;;;6213815;23;20393;-76
2023/03/20 13:45:30;;;;;;;14.97;14.17;;;19.10;90.20;;;;;;6213661;23;20393;-76
2023/03/20 13:48:02;;;;;;;14.70;13.80;;;19.10;91.40;;;;;;6213779;23;20388;-76
2023/03/20 13:50:38;;;;;;;15.20;14.30;;;19.30;90.80;;;;;;6213334;23;20944;-76
2023/03/20 13:53:13;;;;;;;14.40;13.53;;;18.90;91.00;;;;;;6213479;23;20504;-76
2023/03/20 13:55:48;;;;;;;14.50;13.77;;;18.70;91.80;;;;;;6213607;23;20392;-75
2023/03/20 13:58:28;;;;;;;14.77;13.97;;;18.40;92.30;;;;;;6213777;23;20404;-76
2023/03/20 14:00:59;;;;;;;14.97;14.07;;;18.00;92.70;;;;;;6213686;23;20400;-75
2023/03/20 14:03:30;;;;;;;15.60;14.63;;;17.90;93.30;;;;;;6213650;23;20425;-75
2023/03/20 14:05:57;;;;;;;13.43;12.70;;;17.80;93.80;;;;;;6213688;23;20388;-75
2023/03/20 14:08:32;;;;;;;14.73;13.90;;;17.80;93.50;;;;;;6212992;23;20429;-74
2023/03/20 14:11:31;;;;;;;15.17;14.30;;;17.70;93.60;;;;;;6213175;23;20452;-75
2023/03/20 14:14:03;;;;;;;13.73;12.93;;;17.90;93.10;;;;;;6213160;23;20397;-75
2023/03/20 14:16:31;;;;;;;14.23;13.43;;;17.70;92.70;;;;;;6213161;23;20853;-75
2023/03/20 14:19:08;;;;;;;14.60;13.80;;;17.40;93.60;;;;;;6213682;23;20409;-76
2023/03/20 14:21:35;;;;;;;14.37;13.67;;;17.40;93.90;;;;;;6213847;23;20787;-75
2023/03/20 14:24:04;;;;;;;13.07;12.47;;;17.60;93.50;;;;;;6213633;23;20477;-76
2023/03/20 14:26:35;;;;;;;14.60;13.90;;;17.70;93.20;;;;;;6213547;23;20685;-76
2023/03/20 14:29:19;;;;;;;14.70;14.00;;;17.80;93.30;;;;;;6213764;23;20393;-76
2023/03/20 14:31:49;;;;;;;14.23;13.33;;;17.60;93.20;;;;;;6212933;23;20955;-75
2023/03/20 14:34:20;;;;;;;13.60;12.90;;;17.60;93.10;;;;;;6213522;23;20782;-75
2023/03/20 14:37:02;;;;;;;14.57;13.70;;;17.60;93.40;;;;;;6213620;23;20394;-75
2023/03/20 14:39:39;;;;;;;13.87;13.07;;;17.70;93.40;;;;;;6209386;23;20531;-75
2023/03/20 14:42:20;;;;;;;14.77;13.97;;;17.40;93.10;;;;;;6213458;23;20392;-74
2023/03/20 14:45:00;;;;;;;12.73;12.13;;;17.20;93.80;;;;;;6213135;23;20837;-75
2023/03/20 14:47:38;;;;;;;13.43;12.63;;;16.80;94.40;;;;;;6215196;23;20685;-75
2023/03/20 14:50:14;;;;;;;13.87;13.17;;;16.50;95.20;;;;;;6215158;23;20452;-75
2023/03/20 14:52:55;;;;;;;13.10;12.30;;;16.60;95.30;;;;;;6214589;23;20416;-74
2023/03/20 14:55:34;;;;;;;13.80;13.00;;;16.60;95.20;;;;;;6215265;23;20393;-74
2023/03/20 14:58:06;;;;;;;13.47;12.77;;;16.50;95.80;;;;;;6215202;23;20393;-74
2023/03/20 15:00:45;;;;;;;13.20;12.50;;;16.20;96.30;;;;;;6215140;23;20480;-74
2023/03/20 15:03:16;;;;;;;14.50;13.60;;;16.10;96.70;;;;;;6215138;23;20463;-74
2023/03/20 15:05:45;;;;;;;14.00;13.20;;;16.10;97.20;;;;;;6215286;23;20385;-74
2023/03/20 15:08:20;;;;;;;11.70;11.20;;;16.10;97.40;;;;;;6215009;23;20496;-74
2023/03/20 15:10:51;;;;;;;11.47;10.97;;;16.30;96.60;;;;;;6214508;23;20471;-74
2023/03/20 15:13:19;;;;;;;12.70;11.87;;;16.20;96.20;;;;;;6215231;23;20393;-74
2023/03/20 15:15:54;;;;;;;10.97;10.47;;;16.30;96.30;;;;;;6215087;23;20409;-73
2023/03/20 15:18:23;;;;;;;12.20;11.50;;;16.40;96.30;;;;;;6214922;23;20443;-74
2023/03/20 15:20:52;;;;;;;11.57;10.97;;;16.20;96.00;;;;;;6214986;23;20838;-77
2023/03/20 15:23:18;;;;;;;12.03;11.43;;;16.00;96.60;;;;;;6214982;23;20753;-75
2023/03/20 15:25:47;;;;;;;14.13;13.43;;;15.90;96.50;;;;;;6215128;23;20408;-74
2023/03/20 15:28:18;;;;;;;13.60;12.70;;;15.90;97.00;;;;;;6215022;23;20408;-74
2023/03/20 15:30:47;;;;;;;11.80;11.20;;;16.00;97.00;;;;;;6215047;23;20795;-75
2023/03/20 15:33:18;;;;;;;12.00;11.50;;;16.10;97.00;;;;;;6214683;23;20417;-75
2023/03/20 15:35:45;;;;;;;11.93;11.30;;;16.30;96.60;;;;;;6215064;23;20718;-76
2023/03/20 15:38:16;;;;;;;11.93;11.43;;;16.30;96.60;;;;;;6214971;23;20499;-74
2023/03/20 15:40:43;;;;;;;12.30;11.70;;;16.30;96.30;;;;;;6215497;23;20471;-74
2023/03/20 15:43:22;;;;;;;11.60;10.90;;;16.30;96.40;;;;;;6215270;23;20412;-74
2023/03/20 15:45:50;;;;;;;12.23;11.63;;;16.50;96.20;;;;;;6215389;23;20405;-74
2023/03/20 15:48:19;;;;;;;13.90;13.30;;;16.60;96.80;;;;;;6214815;23;20452;-74
2023/03/20 15:50:51;;;;;;;12.17;11.47;;;16.60;95.30;;;;;;6214713;23;20444;-75
2023/03/20 15:53:23;;;;;;;11.50;11.03;;;16.60;95.90;;;;;;6214595;23;20396;-74
2023/03/20 15:55:51;;;;;;;12.70;12.10;;;16.60;95.90;;;;;;6214889;23;20390;-75
2023/03/20 15:58:19;;;;;;;13.63;12.97;;;16.70;95.60;;;;;;6214857;23;20775;-75
2023/03/20 16:00:48;;;;;;;12.27;11.67;;;16.50;95.40;;;;;;6214767;23;20408;-75
2023/03/20 16:03:18;;;;;;;13.40;12.70;;;16.40;95.40;;;;;;6214741;23;20776;-75
2023/03/20 16:05:47;;;;;;;12.80;12.10;;;16.50;95.50;;;;;;6214638;23;20440;-75
2023/03/20 16:08:15;;;;;;;12.20;11.60;;;16.50;95.20;;;;;;6214574;23;20433;-74
2023/03/20 16:10:43;;;;;;;12.90;12.30;;;16.50;95.20;;;;;;6213818;23;20507;-74
2023/03/20 16:13:12;;;;;;;11.73;11.13;;;16.30;95.60;;;;;;6214457;23;20438;-74
2023/03/20 16:15:39;;;;;;;13.47;12.87;;;16.30;95.70;;;;;;6214335;23;20400;-74
2023/03/20 16:18:07;;;;;;;12.80;12.10;;;16.30;96.00;;;;;;6214418;23;20412;-75
2023/03/20 16:20:38;;;;;;;12.50;11.90;;;16.30;96.20;;;;;;6214437;23;20408;-75
2023/03/20 16:23:07;;;;;;;12.40;11.90;;;16.30;96.90;;;;;;6214482;23;20742;-75
2023/03/20 16:25:35;;;;;;;12.23;11.63;;;16.20;96.80;;;;;;6214580;23;20424;-75
2023/03/20 16:28:05;;;;;;;11.93;11.40;;;16.10;96.40;;;;;;6214347;23;20416;-74
2023/03/20 16:30:33;;;;;;;11.50;11.00;;;16.00;96.20;;;;;;6213977;23;20435;-75
2023/03/20 16:33:05;;;;;;;10.67;10.17;;;15.80;96.60;;;;;;6214041;23;20463;-75
2023/03/20 16:35:37;;;;;;;11.70;11.30;;;15.80;96.60;;;;;;6214486;23;20394;-75
2023/03/20 16:38:16;;;;;;;11.67;11.17;;;15.60;96.80;;;;;;6213953;23;20396;-76
2023/03/20 16:40:43;;;;;;;9.30;9.00;;;15.50;95.70;;;;;;6214276;23;20427;-75
2023/03/20 16:43:15;;;;;;;9.40;8.90;;;15.50;95.70;;;;;;6213849;23;20876;-74
2023/03/20 16:45:45;;;;;;;11.00;10.50;;;15.50;95.50;;;;;;6213941;23;20403;-75
2023/03/20 16:48:24;;;;;;;10.17;9.77;;;15.60;95.10;;;;;;6214188;23;20412;-74
2023/03/20 16:50:57;;;;;;;9.43;9.00;;;15.50;94.60;;;;;;6213720;23;20433;-75
2023/03/20 16:53:27;;;;;;;10.07;9.67;;;15.40;94.50;;;;;;6214028;23;20397;-75
2023/03/20 16:55:56;;;;;;;10.00;9.60;;;15.20;95.00;;;;;;6214016;23;20735;-75
2023/03/20 16:58:28;;;;;;;12.00;11.50;;;14.90;95.50;;;;;;6214257;23;20444;-75
2023/03/20 17:01:00;;;;;;;10.83;10.40;;;14.80;95.80;;;;;;6214074;23;20397;-75
2023/03/20 17:03:28;;;;;;;10.00;9.60;;;14.60;95.90;;;;;;6214011;23;20495;-74
2023/03/20 17:05:57;;;;;;;9.70;9.30;;;14.50;96.10;;;;;;6213632;23;20877;-74
2023/03/20 17:08:33;;;;;;;9.40;9.10;;;14.40;95.40;;;;;;6213617;23;20487;-75
2023/03/20 17:11:05;;;;;;;9.50;9.10;;;14.20;96.00;;;;;;6213379;23;20456;-74
2023/03/20 17:13:33;;;;;;;10.00;9.50;;;14.10;96.50;;;;;;6214021;23;20392;-75
2023/03/20 17:16:00;;;;;;;8.73;8.43;;;13.90;96.40;;;;;;6213874;23;20459;-74
2023/03/20 17:18:28;;;;;;;8.87;8.57;;;13.80;96.80;;;;;;6213939;23;20502;-74
2023/03/20 17:20:55;;;;;;;10.53;9.60;;;13.70;96.90;;;;;;6213344;23;20401;-74
2023/03/20 17:23:22;;;;;;;9.53;9.07;;;13.70;97.10;;;;;;6213866;23;20409;-74
2023/03/20 17:25:50;;;;;;;9.20;8.80;;;13.70;97.40;;;;;;6215016;23;20411;-75
2023/03/20 17:28:20;;;;;;;9.97;9.47;;;13.60;97.60;;;;;;6215050;23;20416;-74
2023/03/20 17:30:49;;;;;;;9.50;9.20;;;13.50;98.10;;;;;;6214493;23;20401;-75
2023/03/20 17:33:19;;;;;;;10.30;9.90;;;13.50;97.90;;;;;;6215051;23;20412;-75
2023/03/20 17:35:46;;;;;;;9.80;9.43;;;13.50;98.10;;;;;;6215111;23;20499;-72
2023/03/20 17:38:20;;;;;;;9.00;8.67;;;13.50;98.40;;;;;;6214946;23;20822;-74
2023/03/20 17:40:47;;;;;;;8.53;8.23;;;13.50;97.80;;;;;;6214762;23;20403;-72
2023/03/20 17:43:16;;;;;;;10.00;9.60;;;13.40;97.50;;;;;;6215156;23;20466;-72
2023/03/20 17:45:43;;;;;;;9.60;9.30;;;13.30;97.50;;;;;;6214671;23;20413;-73
2023/03/20 17:48:16;;;;;;;9.83;9.50;;;13.30;97.70;;;;;;6215026;23;20416;-74
2023/03/20 17:50:44;;;;;;;9.37;8.97;;;13.20;97.80;;;;;;6214669;23;20868;-74
2023/03/20 17:53:16;;;;;;;9.50;9.10;;;13.20;98.20;;;;;;6214519;23;20409;-74
2023/03/20 17:55:43;;;;;;;10.47;10.10;;;13.30;98.30;;;;;;6215032;23;20436;-73
